sensor_id;sensor_type;location;lat;lon;timestamp;P1;durP1;ratioP1;P2;durP2;ratioP2
11113;SDS011;5610;52.154;9.198;2022-11-13T00:00:03;9.27;;;8.37;;
11113;SDS011;5610;52.154;9.198;2022-11-13T00:03:08;7.53;;;6.83;;
11113;SDS011;5610;52.154;9.198;2022-11-13T00:06:13;7.60;;;6.90;;
11113;SDS011;5610;52.154;9.198;2022-11-13T00:09:18;9.23;;;6.47;;
11113;SDS011;5610;52.154;9.198;2022-11-13T00:12:22;8.50;;;7.63;;
11113;SDS011;5610;52.154;9.198;2022-11-13T00:15:28;8.80;;;7.83;;
11113;SDS011;5610;52.154;9.198;2022-11-13T00:18:32;9.30;;;7.30;;
11113;SDS011;5610;52.154;9.198;2022-11-13T00:21:38;11.03;;;8.43;;
11113;SDS011;5610;52.154;9.198;2022-11-13T00:24:42;10.47;;;9.60;;
11113;SDS011;5610;52.154;9.198;2022-11-13T00:27:46;9.27;;;8.37;;
11113;SDS011;5610;52.154;9.198;2022-11-13T00:30:56;9.37;;;8.47;;
11113;SDS011;5610;52.154;9.198;2022-11-13T00:34:01;8.13;;;6.33;;
11113;SDS011;5610;52.154;9.198;2022-11-13T00:37:05;6.70;;;6.10;;
11113;SDS011;5610;52.154;9.198;2022-11-13T00:40:09;7.10;;;6.50;;
11113;SDS011;5610;52.154;9.198;2022-11-13T00:43:14;6.80;;;5.73;;
11113;SDS011;5610;52.154;9.198;2022-11-13T00:46:19;5.80;;;5.20;;
11113;SDS011;5610;52.154;9.198;2022-11-13T00:49:23;5.50;;;5.07;;
11113;SDS011;5610;52.154;9.198;2022-11-13T00:52:27;6.13;;;5.33;;
11113;SDS011;5610;52.154;9.198;2022-11-13T00:55:32;4.93;;;4.60;;
11113;SDS011;5610;52.154;9.198;2022-11-13T00:58:36;5.70;;;5.23;;
11113;SDS011;5610;52.154;9.198;2022-11-13T01:01:41;5.93;;;5.30;;
11113;SDS011;5610;52.154;9.198;2022-11-13T01:04:46;5.40;;;4.83;;
11113;SDS011;5610;52.154;9.198;2022-11-13T01:07:49;4.30;;;3.97;;
11113;SDS011;5610;52.154;9.198;2022-11-13T01:10:54;8.50;;;5.60;;
11113;SDS011;5610;52.154;9.198;2022-11-13T01:13:58;6.17;;;5.57;;
11113;SDS011;5610;52.154;9.198;2022-11-13T01:17:03;6.50;;;5.90;;
11113;SDS011;5610;52.154;9.198;2022-11-13T01:20:08;7.30;;;6.37;;
11113;SDS011;5610;52.154;9.198;2022-11-13T01:23:13;13.25;;;9.23;;
11113;SDS011;5610;52.154;9.198;2022-11-13T01:26:18;11.43;;;10.30;;
11113;SDS011;5610;52.154;9.198;2022-11-13T01:29:24;9.70;;;8.70;;
11113;SDS011;5610;52.154;9.198;2022-11-13T01:32:29;9.88;;;8.98;;
11113;SDS011;5610;52.154;9.198;2022-11-13T01:35:33;10.25;;;9.20;;
11113;SDS011;5610;52.154;9.198;2022-11-13T01:38:38;10.68;;;9.55;;
11113;SDS011;5610;52.154;9.198;2022-11-13T01:41:42;10.50;;;9.40;;
11113;SDS011;5610;52.154;9.198;2022-11-13T01:44:47;9.00;;;8.10;;
11113;SDS011;5610;52.154;9.198;2022-11-13T01:47:54;8.30;;;7.50;;
11113;SDS011;5610;52.154;9.198;2022-11-13T01:50:58;8.30;;;6.60;;
11113;SDS011;5610;52.154;9.198;2022-11-13T01:54:04;7.53;;;6.70;;
11113;SDS011;5610;52.154;9.198;2022-11-13T01:57:11;7.80;;;7.05;;
11113;SDS011;5610;52.154;9.198;2022-11-13T02:00:17;7.28;;;6.63;;
11113;SDS011;5610;52.154;9.198;2022-11-13T02:03:23;6.68;;;5.97;;
11113;SDS011;5610;52.154;9.198;2022-11-13T02:06:27;6.83;;;5.80;;
11113;SDS011;5610;52.154;9.198;2022-11-13T02:09:36;6.63;;;5.05;;
11113;SDS011;5610;52.154;9.198;2022-11-13T02:12:45;7.13;;;5.90;;
11113;SDS011;5610;52.154;9.198;2022-11-13T02:15:53;5.97;;;5.40;;
11113;SDS011;5610;52.154;9.198;2022-11-13T02:19:00;7.95;;;5.95;;
11113;SDS011;5610;52.154;9.198;2022-11-13T02:22:07;5.50;;;5.00;;
11113;SDS011;5610;52.154;9.198;2022-11-13T02:25:20;4.60;;;4.20;;
11113;SDS011;5610;52.154;9.198;2022-11-13T02:28:25;4.20;;;3.70;;
11113;SDS011;5610;52.154;9.198;2022-11-13T02:31:29;3.50;;;3.20;;
11113;SDS011;5610;52.154;9.198;2022-11-13T02:34:33;4.57;;;4.18;;
11113;SDS011;5610;52.154;9.198;2022-11-13T02:37:37;5.95;;;4.30;;
11113;SDS011;5610;52.154;9.198;2022-11-13T02:40:43;3.85;;;3.55;;
11113;SDS011;5610;52.154;9.198;2022-11-13T02:43:47;4.10;;;3.70;;
11113;SDS011;5610;52.154;9.198;2022-11-13T02:46:51;3.58;;;3.25;;
11113;SDS011;5610;52.154;9.198;2022-11-13T02:49:56;3.90;;;3.20;;
11113;SDS011;5610;52.154;9.198;2022-11-13T02:53:00;3.30;;;3.00;;
11113;SDS011;5610;52.154;9.198;2022-11-13T02:56:06;3.65;;;3.33;;
11113;SDS011;5610;52.154;9.198;2022-11-13T02:59:10;4.00;;;3.57;;
11113;SDS011;5610;52.154;9.198;2022-11-13T03:02:15;3.90;;;3.60;;
11113;SDS011;5610;52.154;9.198;2022-11-13T03:05:19;3.17;;;2.97;;
11113;SDS011;5610;52.154;9.198;2022-11-13T03:08:23;3.30;;;2.90;;
11113;SDS011;5610;52.154;9.198;2022-11-13T03:11:29;2.90;;;2.70;;
11113;SDS011;5610;52.154;9.198;2022-11-13T03:14:33;3.33;;;2.55;;
11113;SDS011;5610;52.154;9.198;2022-11-13T03:17:37;3.15;;;2.85;;
11113;SDS011;5610;52.154;9.198;2022-11-13T03:20:42;2.80;;;2.50;;
11113;SDS011;5610;52.154;9.198;2022-11-13T03:23:46;3.03;;;2.83;;
11113;SDS011;5610;52.154;9.198;2022-11-13T03:26:51;5.93;;;2.40;;
11113;SDS011;5610;52.154;9.198;2022-11-13T03:29:55;3.55;;;3.03;;
11113;SDS011;5610;52.154;9.198;2022-11-13T03:33:00;3.83;;;2.40;;
11113;SDS011;5610;52.154;9.198;2022-11-13T03:36:04;3.10;;;2.80;;
11113;SDS011;5610;52.154;9.198;2022-11-13T03:39:09;3.47;;;3.00;;
11113;SDS011;5610;52.154;9.198;2022-11-13T03:42:14;3.08;;;2.88;;
11113;SDS011;5610;52.154;9.198;2022-11-13T03:45:18;4.38;;;3.97;;
11113;SDS011;5610;52.154;9.198;2022-11-13T03:48:23;4.60;;;4.20;;
11113;SDS011;5610;52.154;9.198;2022-11-13T03:51:27;4.90;;;4.50;;
11113;SDS011;5610;52.154;9.198;2022-11-13T03:54:31;4.32;;;3.97;;
11113;SDS011;5610;52.154;9.198;2022-11-13T03:57:37;4.00;;;3.70;;
11113;SDS011;5610;52.154;9.198;2022-11-13T04:00:41;4.63;;;3.70;;
11113;SDS011;5610;52.154;9.198;2022-11-13T04:03:46;3.67;;;3.40;;
11113;SDS011;5610;52.154;9.198;2022-11-13T04:06:51;4.25;;;3.85;;
11113;SDS011;5610;52.154;9.198;2022-11-13T04:09:55;4.78;;;4.38;;
11113;SDS011;5610;52.154;9.198;2022-11-13T04:13:00;7.18;;;3.92;;
11113;SDS011;5610;52.154;9.198;2022-11-13T04:16:04;3.83;;;3.42;;
11113;SDS011;5610;52.154;9.198;2022-11-13T04:19:09;3.05;;;2.75;;
11113;SDS011;5610;52.154;9.198;2022-11-13T04:22:13;4.25;;;3.03;;
11113;SDS011;5610;52.154;9.198;2022-11-13T04:25:17;3.92;;;3.63;;
11113;SDS011;5610;52.154;9.198;2022-11-13T04:28:23;3.47;;;2.97;;
11113;SDS011;5610;52.154;9.198;2022-11-13T04:31:27;3.72;;;3.40;;
11113;SDS011;5610;52.154;9.198;2022-11-13T04:34:31;6.13;;;3.97;;
11113;SDS011;5610;52.154;9.198;2022-11-13T04:37:36;4.10;;;3.80;;
11113;SDS011;5610;52.154;9.198;2022-11-13T04:40:40;4.50;;;4.10;;
11113;SDS011;5610;52.154;9.198;2022-11-13T04:43:46;3.13;;;2.92;;
11113;SDS011;5610;52.154;9.198;2022-11-13T04:46:49;3.40;;;3.10;;
11113;SDS011;5610;52.154;9.198;2022-11-13T04:49:53;2.55;;;2.20;;
11113;SDS011;5610;52.154;9.198;2022-11-13T04:52:58;2.75;;;2.55;;
11113;SDS011;5610;52.154;9.198;2022-11-13T04:56:02;3.40;;;3.10;;
11113;SDS011;5610;52.154;9.198;2022-11-13T04:59:08;3.80;;;2.58;;
11113;SDS011;5610;52.154;9.198;2022-11-13T05:02:13;2.40;;;2.20;;
11113;SDS011;5610;52.154;9.198;2022-11-13T05:05:17;3.00;;;2.65;;
11113;SDS011;5610;52.154;9.198;2022-11-13T05:08:21;2.95;;;2.75;;
11113;SDS011;5610;52.154;9.198;2022-11-13T05:11:25;4.20;;;3.20;;
11113;SDS011;5610;52.154;9.198;2022-11-13T05:14:31;3.33;;;3.10;;
11113;SDS011;5610;52.154;9.198;2022-11-13T05:17:35;4.20;;;3.25;;
11113;SDS011;5610;52.154;9.198;2022-11-13T05:20:39;3.97;;;3.67;;
11113;SDS011;5610;52.154;9.198;2022-11-13T05:23:43;5.18;;;3.50;;
11113;SDS011;5610;52.154;9.198;2022-11-13T05:26:47;3.95;;;3.65;;
11113;SDS011;5610;52.154;9.198;2022-11-13T05:29:53;4.88;;;4.38;;
11113;SDS011;5610;52.154;9.198;2022-11-13T05:32:57;6.50;;;5.88;;
11113;SDS011;5610;52.154;9.198;2022-11-13T05:36:01;7.57;;;6.88;;
11113;SDS011;5610;52.154;9.198;2022-11-13T05:39:06;7.22;;;6.53;;
11113;SDS011;5610;52.154;9.198;2022-11-13T05:42:10;6.28;;;5.68;;
11113;SDS011;5610;52.154;9.198;2022-11-13T05:45:15;8.32;;;7.53;;
11113;SDS011;5610;52.154;9.198;2022-11-13T05:48:20;6.22;;;5.70;;
11113;SDS011;5610;52.154;9.198;2022-11-13T05:51:24;5.90;;;5.25;;
11113;SDS011;5610;52.154;9.198;2022-11-13T05:54:29;6.45;;;5.85;;
11113;SDS011;5610;52.154;9.198;2022-11-13T05:57:33;5.55;;;4.72;;
11113;SDS011;5610;52.154;9.198;2022-11-13T06:00:39;5.57;;;5.05;;
11113;SDS011;5610;52.154;9.198;2022-11-13T06:03:44;6.78;;;6.15;;
11113;SDS011;5610;52.154;9.198;2022-11-13T06:06:48;7.63;;;6.63;;
11113;SDS011;5610;52.154;9.198;2022-11-13T06:09:53;7.05;;;6.45;;
11113;SDS011;5610;52.154;9.198;2022-11-13T06:12:57;9.05;;;4.80;;
11113;SDS011;5610;52.154;9.198;2022-11-13T06:16:03;7.50;;;4.45;;
11113;SDS011;5610;52.154;9.198;2022-11-13T06:19:09;7.90;;;4.97;;
11113;SDS011;5610;52.154;9.198;2022-11-13T06:22:13;5.60;;;4.80;;
11113;SDS011;5610;52.154;9.198;2022-11-13T06:25:17;4.88;;;4.47;;
11113;SDS011;5610;52.154;9.198;2022-11-13T06:28:22;7.72;;;6.43;;
11113;SDS011;5610;52.154;9.198;2022-11-13T06:31:28;7.43;;;6.82;;
11113;SDS011;5610;52.154;9.198;2022-11-13T06:34:34;7.28;;;6.68;;
11113;SDS011;5610;52.154;9.198;2022-11-13T06:37:38;7.45;;;6.75;;
11113;SDS011;5610;52.154;9.198;2022-11-13T06:40:43;7.05;;;5.50;;
11113;SDS011;5610;52.154;9.198;2022-11-13T06:43:47;10.27;;;5.97;;
11113;SDS011;5610;52.154;9.198;2022-11-13T06:46:52;5.47;;;5.07;;
11113;SDS011;5610;52.154;9.198;2022-11-13T06:49:56;5.57;;;5.13;;
11113;SDS011;5610;52.154;9.198;2022-11-13T06:53:00;3.75;;;3.45;;
11113;SDS011;5610;52.154;9.198;2022-11-13T06:56:05;4.25;;;3.30;;
11113;SDS011;5610;52.154;9.198;2022-11-13T06:59:10;4.63;;;4.07;;
11113;SDS011;5610;52.154;9.198;2022-11-13T07:02:17;5.60;;;5.07;;
11113;SDS011;5610;52.154;9.198;2022-11-13T07:05:21;5.25;;;4.75;;
11113;SDS011;5610;52.154;9.198;2022-11-13T07:08:25;5.10;;;4.65;;
11113;SDS011;5610;52.154;9.198;2022-11-13T07:11:30;5.72;;;5.30;;
11113;SDS011;5610;52.154;9.198;2022-11-13T07:14:35;7.93;;;7.22;;
11113;SDS011;5610;52.154;9.198;2022-11-13T07:17:40;7.40;;;6.72;;
11113;SDS011;5610;52.154;9.198;2022-11-13T07:20:45;7.55;;;6.85;;
11113;SDS011;5610;52.154;9.198;2022-11-13T07:23:49;7.05;;;6.45;;
11113;SDS011;5610;52.154;9.198;2022-11-13T07:26:54;7.53;;;6.82;;
11113;SDS011;5610;52.154;9.198;2022-11-13T07:29:58;7.10;;;6.40;;
11113;SDS011;5610;52.154;9.198;2022-11-13T07:33:03;11.55;;;6.05;;
11113;SDS011;5610;52.154;9.198;2022-11-13T07:36:09;5.22;;;4.65;;
11113;SDS011;5610;52.154;9.198;2022-11-13T07:39:13;4.75;;;4.35;;
11113;SDS011;5610;52.154;9.198;2022-11-13T07:42:17;4.70;;;4.30;;
11113;SDS011;5610;52.154;9.198;2022-11-13T07:45:21;4.72;;;4.28;;
11113;SDS011;5610;52.154;9.198;2022-11-13T07:48:27;3.63;;;3.42;;
11113;SDS011;5610;52.154;9.198;2022-11-13T07:51:31;4.55;;;3.97;;
11113;SDS011;5610;52.154;9.198;2022-11-13T07:54:35;4.30;;;3.88;;
11113;SDS011;5610;52.154;9.198;2022-11-13T07:57:39;5.80;;;4.80;;
11113;SDS011;5610;52.154;9.198;2022-11-13T08:00:43;4.95;;;4.15;;
11113;SDS011;5610;52.154;9.198;2022-11-13T08:03:49;8.00;;;4.90;;
11113;SDS011;5610;52.154;9.198;2022-11-13T08:06:53;6.22;;;5.63;;
11113;SDS011;5610;52.154;9.198;2022-11-13T08:09:57;5.43;;;4.93;;
11113;SDS011;5610;52.154;9.198;2022-11-13T08:13:02;5.40;;;5.00;;
11113;SDS011;5610;52.154;9.198;2022-11-13T08:16:07;5.27;;;4.50;;
11113;SDS011;5610;52.154;9.198;2022-11-13T08:19:12;6.10;;;3.50;;
11113;SDS011;5610;52.154;9.198;2022-11-13T08:22:17;8.03;;;6.47;;
11113;SDS011;5610;52.154;9.198;2022-11-13T08:25:21;7.50;;;6.80;;
11113;SDS011;5610;52.154;9.198;2022-11-13T08:28:25;7.37;;;6.67;;
11113;SDS011;5610;52.154;9.198;2022-11-13T08:31:29;7.90;;;7.30;;
11113;SDS011;5610;52.154;9.198;2022-11-13T08:34:35;8.07;;;7.40;;
11113;SDS011;5610;52.154;9.198;2022-11-13T08:37:39;8.60;;;7.70;;
11113;SDS011;5610;52.154;9.198;2022-11-13T08:40:44;8.53;;;7.70;;
11113;SDS011;5610;52.154;9.198;2022-11-13T08:43:48;7.87;;;7.27;;
11113;SDS011;5610;52.154;9.198;2022-11-13T08:46:52;7.90;;;7.30;;
11113;SDS011;5610;52.154;9.198;2022-11-13T08:49:58;9.13;;;8.33;;
11113;SDS011;5610;52.154;9.198;2022-11-13T08:53:02;9.07;;;8.37;;
11113;SDS011;5610;52.154;9.198;2022-11-13T08:56:06;9.10;;;8.30;;
11113;SDS011;5610;52.154;9.198;2022-11-13T08:59:10;7.50;;;6.90;;
11113;SDS011;5610;52.154;9.198;2022-11-13T09:02:15;8.40;;;6.80;;
11113;SDS011;5610;52.154;9.198;2022-11-13T09:05:20;8.13;;;6.50;;
11113;SDS011;5610;52.154;9.198;2022-11-13T09:08:24;7.30;;;6.70;;
11113;SDS011;5610;52.154;9.198;2022-11-13T09:11:28;8.23;;;7.43;;
11113;SDS011;5610;52.154;9.198;2022-11-13T09:14:33;7.80;;;7.20;;
11113;SDS011;5610;52.154;9.198;2022-11-13T09:17:37;8.20;;;7.50;;
11113;SDS011;5610;52.154;9.198;2022-11-13T09:20:43;8.70;;;7.80;;
11113;SDS011;5610;52.154;9.198;2022-11-13T09:23:48;6.93;;;6.43;;
11113;SDS011;5610;52.154;9.198;2022-11-13T09:26:52;7.87;;;7.20;;
11113;SDS011;5610;52.154;9.198;2022-11-13T09:29:56;7.23;;;6.73;;
11113;SDS011;5610;52.154;9.198;2022-11-13T09:33:00;8.20;;;7.40;;
11113;SDS011;5610;52.154;9.198;2022-11-13T09:36:10;8.03;;;7.23;;
11113;SDS011;5610;52.154;9.198;2022-11-13T09:39:16;8.20;;;7.50;;
11113;SDS011;5610;52.154;9.198;2022-11-13T09:42:20;9.67;;;7.60;;
11113;SDS011;5610;52.154;9.198;2022-11-13T09:45:27;6.97;;;6.37;;
11113;SDS011;5610;52.154;9.198;2022-11-13T09:48:34;6.63;;;6.13;;
11113;SDS011;5610;52.154;9.198;2022-11-13T09:51:42;7.00;;;6.50;;
11113;SDS011;5610;52.154;9.198;2022-11-13T09:54:52;7.50;;;6.70;;
11113;SDS011;5610;52.154;9.198;2022-11-13T09:57:57;7.50;;;6.90;;
11113;SDS011;5610;52.154;9.198;2022-11-13T10:01:08;7.83;;;7.13;;
11113;SDS011;5610;52.154;9.198;2022-11-13T10:04:21;7.23;;;6.63;;
11113;SDS011;5610;52.154;9.198;2022-11-13T10:07:35;6.77;;;6.27;;
11113;SDS011;5610;52.154;9.198;2022-11-13T10:10:49;6.70;;;6.13;;
11113;SDS011;5610;52.154;9.198;2022-11-13T10:13:58;7.47;;;6.80;;
11113;SDS011;5610;52.154;9.198;2022-11-13T10:17:07;7.93;;;6.37;;
11113;SDS011;5610;52.154;9.198;2022-11-13T10:20:18;7.00;;;6.50;;
11113;SDS011;5610;52.154;9.198;2022-11-13T10:23:28;6.37;;;5.87;;
11113;SDS011;5610;52.154;9.198;2022-11-13T10:26:35;6.60;;;6.10;;
11113;SDS011;5610;52.154;9.198;2022-11-13T10:29:39;6.70;;;6.17;;
11113;SDS011;5610;52.154;9.198;2022-11-13T10:32:44;6.07;;;5.67;;
11113;SDS011;5610;52.154;9.198;2022-11-13T10:35:52;6.17;;;5.77;;
11113;SDS011;5610;52.154;9.198;2022-11-13T10:39:03;6.30;;;5.80;;
11113;SDS011;5610;52.154;9.198;2022-11-13T10:42:19;7.80;;;7.30;;
11113;SDS011;5610;52.154;9.198;2022-11-13T10:45:24;5.80;;;5.40;;
11113;SDS011;5610;52.154;9.198;2022-11-13T10:48:30;5.73;;;5.13;;
11113;SDS011;5610;52.154;9.198;2022-11-13T10:51:36;5.53;;;5.13;;
11113;SDS011;5610;52.154;9.198;2022-11-13T10:54:42;5.40;;;5.00;;
11113;SDS011;5610;52.154;9.198;2022-11-13T10:57:53;5.23;;;4.83;;
11113;SDS011;5610;52.154;9.198;2022-11-13T11:00:58;5.20;;;4.80;;
11113;SDS011;5610;52.154;9.198;2022-11-13T11:04:02;4.90;;;4.60;;
11113;SDS011;5610;52.154;9.198;2022-11-13T11:07:10;6.20;;;5.70;;
11113;SDS011;5610;52.154;9.198;2022-11-13T11:10:20;5.77;;;5.37;;
11113;SDS011;5610;52.154;9.198;2022-11-13T11:13:34;6.33;;;5.83;;
11113;SDS011;5610;52.154;9.198;2022-11-13T11:16:38;5.80;;;5.30;;
11113;SDS011;5610;52.154;9.198;2022-11-13T11:19:43;6.47;;;5.97;;
11113;SDS011;5610;52.154;9.198;2022-11-13T11:22:56;6.80;;;6.30;;
11113;SDS011;5610;52.154;9.198;2022-11-13T11:26:08;9.97;;;9.27;;
11113;SDS011;5610;52.154;9.198;2022-11-13T11:29:16;8.90;;;8.20;;
11113;SDS011;5610;52.154;9.198;2022-11-13T11:32:26;11.57;;;10.70;;
11113;SDS011;5610;52.154;9.198;2022-11-13T11:35:37;9.60;;;8.97;;
11113;SDS011;5610;52.154;9.198;2022-11-13T11:38:47;5.23;;;4.87;;
11113;SDS011;5610;52.154;9.198;2022-11-13T11:41:59;5.20;;;4.80;;
11113;SDS011;5610;52.154;9.198;2022-11-13T11:45:13;4.70;;;4.30;;
11113;SDS011;5610;52.154;9.198;2022-11-13T11:48:25;3.97;;;3.67;;
11113;SDS011;5610;52.154;9.198;2022-11-13T11:51:31;3.80;;;3.57;;
11113;SDS011;5610;52.154;9.198;2022-11-13T11:54:42;5.80;;;3.77;;
11113;SDS011;5610;52.154;9.198;2022-11-13T11:58:04;3.17;;;2.90;;
11113;SDS011;5610;52.154;9.198;2022-11-13T12:01:17;3.90;;;3.60;;
11113;SDS011;5610;52.154;9.198;2022-11-13T12:04:39;4.57;;;4.17;;
11113;SDS011;5610;52.154;9.198;2022-11-13T12:07:56;6.57;;;4.27;;
11113;SDS011;5610;52.154;9.198;2022-11-13T12:11:11;3.70;;;3.40;;
11113;SDS011;5610;52.154;9.198;2022-11-13T12:14:22;3.63;;;3.33;;
11113;SDS011;5610;52.154;9.198;2022-11-13T12:17:42;4.30;;;4.00;;
11113;SDS011;5610;52.154;9.198;2022-11-13T12:20:58;2.90;;;2.70;;
11113;SDS011;5610;52.154;9.198;2022-11-13T12:24:16;3.10;;;2.90;;
11113;SDS011;5610;52.154;9.198;2022-11-13T12:27:29;3.23;;;3.03;;
11113;SDS011;5610;52.154;9.198;2022-11-13T12:30:40;3.30;;;3.00;;
11113;SDS011;5610;52.154;9.198;2022-11-13T12:33:51;5.20;;;3.40;;
11113;SDS011;5610;52.154;9.198;2022-11-13T12:37:04;3.40;;;3.20;;
11113;SDS011;5610;52.154;9.198;2022-11-13T12:40:17;3.47;;;3.17;;
11113;SDS011;5610;52.154;9.198;2022-11-13T12:43:29;3.03;;;2.83;;
11113;SDS011;5610;52.154;9.198;2022-11-13T12:46:46;3.20;;;3.00;;
11113;SDS011;5610;52.154;9.198;2022-11-13T12:49:59;3.80;;;3.50;;
11113;SDS011;5610;52.154;9.198;2022-11-13T12:53:07;4.23;;;3.83;;
11113;SDS011;5610;52.154;9.198;2022-11-13T12:56:16;3.37;;;3.07;;
11113;SDS011;5610;52.154;9.198;2022-11-13T12:59:32;3.73;;;3.33;;
11113;SDS011;5610;52.154;9.198;2022-11-13T13:02:44;4.00;;;3.10;;
11113;SDS011;5610;52.154;9.198;2022-11-13T13:06:08;4.10;;;3.70;;
11113;SDS011;5610;52.154;9.198;2022-11-13T13:09:24;2.93;;;2.73;;
11113;SDS011;5610;52.154;9.198;2022-11-13T13:12:44;3.30;;;3.00;;
11113;SDS011;5610;52.154;9.198;2022-11-13T13:15:58;3.53;;;3.23;;
11113;SDS011;5610;52.154;9.198;2022-11-13T13:19:06;3.93;;;3.63;;
11113;SDS011;5610;52.154;9.198;2022-11-13T13:22:26;5.20;;;4.70;;
11113;SDS011;5610;52.154;9.198;2022-11-13T13:25:31;5.30;;;4.80;;
11113;SDS011;5610;52.154;9.198;2022-11-13T13:28:37;5.60;;;5.10;;
11113;SDS011;5610;52.154;9.198;2022-11-13T13:31:43;4.97;;;4.57;;
11113;SDS011;5610;52.154;9.198;2022-11-13T13:34:56;5.00;;;4.60;;
11113;SDS011;5610;52.154;9.198;2022-11-13T13:38:11;6.13;;;5.53;;
11113;SDS011;5610;52.154;9.198;2022-11-13T13:41:22;6.30;;;5.80;;
11113;SDS011;5610;52.154;9.198;2022-11-13T13:44:40;6.60;;;6.00;;
11113;SDS011;5610;52.154;9.198;2022-11-13T13:47:55;7.67;;;6.93;;
11113;SDS011;5610;52.154;9.198;2022-11-13T13:51:02;7.43;;;6.73;;
11113;SDS011;5610;52.154;9.198;2022-11-13T13:54:14;6.20;;;5.70;;
11113;SDS011;5610;52.154;9.198;2022-11-13T13:57:22;7.60;;;6.90;;
11113;SDS011;5610;52.154;9.198;2022-11-13T14:00:28;9.53;;;6.60;;
11113;SDS011;5610;52.154;9.198;2022-11-13T14:03:32;12.37;;;9.70;;
11113;SDS011;5610;52.154;9.198;2022-11-13T14:06:45;8.03;;;7.23;;
11113;SDS011;5610;52.154;9.198;2022-11-13T14:10:04;9.50;;;8.60;;
11113;SDS011;5610;52.154;9.198;2022-11-13T14:13:10;9.87;;;8.90;;
11113;SDS011;5610;52.154;9.198;2022-11-13T14:16:15;8.80;;;8.10;;
11113;SDS011;5610;52.154;9.198;2022-11-13T14:19:20;10.23;;;9.30;;
11113;SDS011;5610;52.154;9.198;2022-11-13T14:22:26;11.83;;;10.73;;
11113;SDS011;5610;52.154;9.198;2022-11-13T14:25:30;11.93;;;10.60;;
11113;SDS011;5610;52.154;9.198;2022-11-13T14:28:41;12.90;;;11.43;;
11113;SDS011;5610;52.154;9.198;2022-11-13T14:31:48;18.13;;;16.23;;
11113;SDS011;5610;52.154;9.198;2022-11-13T14:34:55;23.63;;;21.17;;
11113;SDS011;5610;52.154;9.198;2022-11-13T14:38:03;14.03;;;12.67;;
11113;SDS011;5610;52.154;9.198;2022-11-13T14:41:13;13.70;;;12.40;;
11113;SDS011;5610;52.154;9.198;2022-11-13T14:44:26;14.23;;;12.93;;
11113;SDS011;5610;52.154;9.198;2022-11-13T14:47:32;13.63;;;12.33;;
11113;SDS011;5610;52.154;9.198;2022-11-13T14:50:47;13.93;;;12.37;;
11113;SDS011;5610;52.154;9.198;2022-11-13T14:53:58;14.30;;;12.90;;
11113;SDS011;5610;52.154;9.198;2022-11-13T14:57:07;18.33;;;14.30;;
11113;SDS011;5610;52.154;9.198;2022-11-13T15:00:14;16.37;;;14.77;;
11113;SDS011;5610;52.154;9.198;2022-11-13T15:03:19;17.83;;;15.93;;
11113;SDS011;5610;52.154;9.198;2022-11-13T15:06:24;18.90;;;16.83;;
11113;SDS011;5610;52.154;9.198;2022-11-13T15:09:31;18.70;;;16.80;;
11113;SDS011;5610;52.154;9.198;2022-11-13T15:12:35;19.83;;;17.73;;
11113;SDS011;5610;52.154;9.198;2022-11-13T15:15:40;21.03;;;18.93;;
11113;SDS011;5610;52.154;9.198;2022-11-13T15:18:45;22.13;;;19.90;;
11113;SDS011;5610;52.154;9.198;2022-11-13T15:21:52;22.63;;;20.33;;
11113;SDS011;5610;52.154;9.198;2022-11-13T15:24:59;23.10;;;20.70;;
11113;SDS011;5610;52.154;9.198;2022-11-13T15:28:03;25.03;;;22.43;;
11113;SDS011;5610;52.154;9.198;2022-11-13T15:31:11;29.93;;;24.20;;
11113;SDS011;5610;52.154;9.198;2022-11-13T15:34:21;26.83;;;24.00;;
11113;SDS011;5610;52.154;9.198;2022-11-13T15:37:25;30.53;;;26.60;;
11113;SDS011;5610;52.154;9.198;2022-11-13T15:40:31;28.57;;;25.47;;
11113;SDS011;5610;52.154;9.198;2022-11-13T15:43:34;31.27;;;25.27;;
11113;SDS011;5610;52.154;9.198;2022-11-13T15:46:39;30.30;;;26.30;;
11113;SDS011;5610;52.154;9.198;2022-11-13T15:49:42;36.50;;;28.30;;
11113;SDS011;5610;52.154;9.198;2022-11-13T15:52:48;36.10;;;29.33;;
11113;SDS011;5610;52.154;9.198;2022-11-13T15:55:56;37.13;;;29.23;;
11113;SDS011;5610;52.154;9.198;2022-11-13T15:59:08;36.43;;;28.30;;
11113;SDS011;5610;52.154;9.198;2022-11-13T16:02:14;36.40;;;29.67;;
11113;SDS011;5610;52.154;9.198;2022-11-13T16:05:18;34.67;;;28.67;;
11113;SDS011;5610;52.154;9.198;2022-11-13T16:08:25;33.37;;;27.73;;
11113;SDS011;5610;52.154;9.198;2022-11-13T16:11:31;35.87;;;29.13;;
11113;SDS011;5610;52.154;9.198;2022-11-13T16:14:36;33.47;;;27.57;;
11113;SDS011;5610;52.154;9.198;2022-11-13T16:17:41;35.67;;;27.80;;
11113;SDS011;5610;52.154;9.198;2022-11-13T16:20:48;35.60;;;28.10;;
11113;SDS011;5610;52.154;9.198;2022-11-13T16:23:53;35.10;;;28.87;;
11113;SDS011;5610;52.154;9.198;2022-11-13T16:26:58;34.73;;;29.03;;
11113;SDS011;5610;52.154;9.198;2022-11-13T16:30:03;33.30;;;27.63;;
11113;SDS011;5610;52.154;9.198;2022-11-13T16:33:07;33.97;;;28.00;;
11113;SDS011;5610;52.154;9.198;2022-11-13T16:36:12;38.40;;;31.17;;
11113;SDS011;5610;52.154;9.198;2022-11-13T16:39:17;53.10;;;39.00;;
11113;SDS011;5610;52.154;9.198;2022-11-13T16:42:23;41.03;;;32.80;;
11113;SDS011;5610;52.154;9.198;2022-11-13T16:45:27;48.00;;;33.80;;
11113;SDS011;5610;52.154;9.198;2022-11-13T16:48:31;41.70;;;32.47;;
11113;SDS011;5610;52.154;9.198;2022-11-13T16:51:36;39.53;;;32.10;;
11113;SDS011;5610;52.154;9.198;2022-11-13T16:54:40;40.10;;;31.10;;
11113;SDS011;5610;52.154;9.198;2022-11-13T16:57:45;42.07;;;34.50;;
11113;SDS011;5610;52.154;9.198;2022-11-13T17:00:49;47.80;;;34.50;;
11113;SDS011;5610;52.154;9.198;2022-11-13T17:03:53;45.13;;;33.53;;
11113;SDS011;5610;52.154;9.198;2022-11-13T17:06:57;46.03;;;33.63;;
11113;SDS011;5610;52.154;9.198;2022-11-13T17:10:01;50.83;;;36.60;;
11113;SDS011;5610;52.154;9.198;2022-11-13T17:13:08;56.00;;;34.60;;
11113;SDS011;5610;52.154;9.198;2022-11-13T17:16:12;52.90;;;36.37;;
11113;SDS011;5610;52.154;9.198;2022-11-13T17:19:16;45.80;;;33.70;;
11113;SDS011;5610;52.154;9.198;2022-11-13T17:22:20;50.27;;;34.60;;
11113;SDS011;5610;52.154;9.198;2022-11-13T17:25:24;52.17;;;34.60;;
11113;SDS011;5610;52.154;9.198;2022-11-13T17:28:31;48.77;;;33.90;;
11113;SDS011;5610;52.154;9.198;2022-11-13T17:31:35;47.90;;;34.33;;
11113;SDS011;5610;52.154;9.198;2022-11-13T17:34:39;52.23;;;35.60;;
11113;SDS011;5610;52.154;9.198;2022-11-13T17:37:45;47.23;;;32.17;;
11113;SDS011;5610;52.154;9.198;2022-11-13T17:40:49;44.00;;;32.07;;
11113;SDS011;5610;52.154;9.198;2022-11-13T17:43:54;50.57;;;33.60;;
11113;SDS011;5610;52.154;9.198;2022-11-13T17:46:59;47.43;;;32.53;;
11113;SDS011;5610;52.154;9.198;2022-11-13T17:50:03;48.97;;;33.20;;
11113;SDS011;5610;52.154;9.198;2022-11-13T17:53:08;54.10;;;37.30;;
11113;SDS011;5610;52.154;9.198;2022-11-13T17:56:12;54.83;;;37.83;;
11113;SDS011;5610;52.154;9.198;2022-11-13T17:59:18;55.77;;;37.13;;
11113;SDS011;5610;52.154;9.198;2022-11-13T18:02:22;52.67;;;36.67;;
11113;SDS011;5610;52.154;9.198;2022-11-13T18:05:26;60.73;;;39.73;;
11113;SDS011;5610;52.154;9.198;2022-11-13T18:08:30;50.97;;;36.20;;
11113;SDS011;5610;52.154;9.198;2022-11-13T18:11:34;52.87;;;36.80;;
11113;SDS011;5610;52.154;9.198;2022-11-13T18:14:40;51.70;;;35.30;;
11113;SDS011;5610;52.154;9.198;2022-11-13T18:17:44;52.37;;;38.20;;
11113;SDS011;5610;52.154;9.198;2022-11-13T18:20:48;59.20;;;39.13;;
11113;SDS011;5610;52.154;9.198;2022-11-13T18:23:56;53.33;;;35.40;;
11113;SDS011;5610;52.154;9.198;2022-11-13T18:27:02;49.63;;;34.47;;
11113;SDS011;5610;52.154;9.198;2022-11-13T18:30:09;50.53;;;34.00;;
11113;SDS011;5610;52.154;9.198;2022-11-13T18:33:13;53.80;;;35.37;;
11113;SDS011;5610;52.154;9.198;2022-11-13T18:36:17;49.47;;;33.13;;
11113;SDS011;5610;52.154;9.198;2022-11-13T18:39:21;52.17;;;35.07;;
11113;SDS011;5610;52.154;9.198;2022-11-13T18:42:25;46.37;;;33.90;;
11113;SDS011;5610;52.154;9.198;2022-11-13T18:45:31;50.63;;;36.37;;
11113;SDS011;5610;52.154;9.198;2022-11-13T18:48:36;47.30;;;33.63;;
11113;SDS011;5610;52.154;9.198;2022-11-13T18:51:41;53.40;;;37.03;;